Time;durP1;ratioP1;P1;durP2;ratioP2;P2;SDS_P1;SDS_P2;PMS_P1;PMS_P2;Temp;Humidity;BMP_temperature;BMP_pressure;BME280_temperature;BME280_humidity;BME280_pressure;Samples;Min_cycle;Max_cycle;Signal;HPM_P1;HPM_P2
2022/03/19 00:01:27;;;;;;;16.98;8.65;;;;;;;-9.90;50.11;98572.22;6375119;27;20427;-63
2022/03/19 00:04:31;;;;;;;;;;;;;;;-10.01;50.25;98569.22;6357194;27;20039;-63
2022/03/19 00:07:38;;;;;;;15.18;8.00;;;;;;;-10.21;50.88;98576.00;6375187;27;19999;-64
2022/03/19 00:10:41;;;;;;;13.70;7.05;;;;;;;-10.36;51.14;98580.41;6375023;27;20039;-64
2022/03/19 00:13:45;;;;;;;;;;;;;;;-10.49;53.51;98584.97;6357094;27;20051;-64
2022/03/19 00:16:50;;;;;;;13.32;7.13;;;;;;;-10.62;51.91;98575.03;6374925;27;19919;-63
2022/03/19 00:19:53;;;;;;;18.42;7.57;;;;;;;-10.68;51.69;98572.22;6375440;27;20038;-63
2022/03/19 00:22:57;;;;;;;;;;;;;;;-10.71;51.02;98567.00;6375439;27;20493;-63
2022/03/19 00:26:01;;;;;;;15.35;7.65;;;;;;;-10.79;51.58;98575.94;6374474;27;19915;-64
2022/03/19 00:29:06;;;;;;;19.27;8.73;;;;;;;-10.82;51.07;98573.25;6356765;27;20035;-64
2022/03/19 00:32:11;;;;;;;15.35;8.90;;;;;;;-10.85;51.55;98579.94;6374921;27;20357;-64
2022/03/19 00:35:15;;;;;;;;;;;;;;;-10.91;52.31;98569.50;6374262;27;20504;-63
2022/03/19 00:38:20;;;;;;;18.42;9.63;;;;;;;-10.97;51.69;98561.59;6356442;27;19920;-64
2022/03/19 00:41:24;;;;;;;19.92;9.13;;;;;;;-11.02;51.99;98547.78;6374450;27;20039;-64
2022/03/19 00:44:28;;;;;;;;;;;;;;;-10.97;51.26;98569.22;6374504;27;20415;-63
2022/03/19 00:47:32;;;;;;;24.20;9.75;;;;;;;-11.05;51.00;98560.34;6374067;27;20382;-63
2022/03/19 00:50:37;;;;;;;18.92;9.73;;;;;;;-11.08;51.49;98555.13;6355980;27;20045;-64
2022/03/19 00:53:42;;;;;;;18.98;8.77;;;;;;;-11.10;51.16;98561.81;6373845;27;20427;-64
2022/03/19 00:56:47;;;;;;;18.40;8.43;;;;;;;-11.14;51.45;98560.78;6373855;27;20043;-62
2022/03/19 00:59:50;;;;;;;;;;;;;;;-11.18;51.70;98563.09;6373999;27;20043;-64
2022/03/19 01:02:56;;;;;;;15.70;7.43;;;;;;;-11.25;51.40;98566.16;6373600;27;20341;-64
2022/03/19 01:06:00;;;;;;;12.45;7.15;;;;;;;-11.31;51.66;98557.47;6373672;27;20396;-64
2022/03/19 01:09:05;;;;;;;13.60;7.05;;;;;;;-11.37;52.04;98552.09;6373726;27;20039;-63
2022/03/19 01:12:09;;;;;;;18.05;8.20;;;;;;;-11.36;52.49;98551.28;6355204;27;20139;-63
2022/03/19 01:15:15;;;;;;;15.98;7.43;;;;;;;-11.36;52.40;98553.81;6373327;27;20500;-64
2022/03/19 01:18:19;;;;;;;16.00;8.05;;;;;;;-11.34;52.29;98561.53;6355011;27;20051;-65
2022/03/19 01:21:21;;;;;;;;;;;;;;;-11.32;51.91;98560.81;6355519;27;20069;-62
2022/03/19 01:24:26;;;;;;;13.68;7.35;;;;;;;-11.33;51.73;98573.41;6373356;27;19938;-64
2022/03/19 01:27:33;;;;;;;15.50;6.97;;;;;;;-11.35;52.15;98575.91;6373253;27;20039;-64
2022/03/19 01:30:38;;;;;;;14.30;7.80;;;;;;;-11.37;52.30;98572.41;6373473;27;20035;-64
2022/03/19 01:33:41;;;;;;;;;;;;;;;-11.37;51.86;98562.25;6355220;27;20043;-63
2022/03/19 01:36:45;;;;;;;15.10;7.18;;;;;;;-11.46;51.85;98558.38;6354778;27;20307;-64
2022/03/19 01:39:48;;;;;;;;;;;;;;;-11.50;52.22;98585.31;6373281;27;20054;-63
2022/03/19 01:42:53;;;;;;;18.85;8.05;;;;;;;-11.56;52.13;98585.00;6354007;27;19915;-64
2022/03/19 01:45:57;;;;;;;13.43;7.00;;;;;;;-11.65;52.03;98574.41;6372814;27;20408;-64
2022/03/19 01:49:03;;;;;;;16.20;8.32;;;;;;;-11.76;52.08;98582.34;6372086;27;20042;-64
2022/03/19 01:52:08;;;;;;;16.48;7.13;;;;;;;-11.81;52.64;98583.78;6372445;27;20500;-65
2022/03/19 01:55:14;;;;;;;17.08;7.32;;;;;;;-11.85;52.60;98560.75;6372338;27;20039;-63
2022/03/19 01:58:18;;;;;;;14.50;7.70;;;;;;;-11.83;52.73;98565.09;6372368;27;20401;-64
2022/03/19 02:01:21;;;;;;;;;;;;;;;-11.81;53.06;98563.47;6372522;27;20122;-63
2022/03/19 02:04:25;;;;;;;20.48;9.75;;;;;;;-11.86;52.60;98554.81;6372149;27;19923;-63
2022/03/19 02:07:31;;;;;;;21.48;9.88;;;;;;;-11.85;52.94;98556.53;6354062;27;20043;-64
2022/03/19 02:10:39;;;;;;;22.00;8.55;;;;;;;-11.86;52.78;98567.50;6353830;27;20051;-64
2022/03/19 02:13:44;;;;;;;20.73;9.88;;;;;;;-11.93;52.67;98568.00;6371885;27;20454;-64
2022/03/19 02:16:47;;;;;;;;;;;;;;;-11.92;52.13;98582.41;6372551;27;20043;-63
2022/03/19 02:19:53;;;;;;;31.23;9.50;;;;;;;-11.96;51.99;98588.16;6353895;27;19919;-63
2022/03/19 02:26:19;;;;;;;23.85;9.77;;;;;;;-11.89;51.76;98585.09;6371598;27;20043;-64
2022/03/19 02:29:25;;;;;;;20.85;10.27;;;;;;;-11.85;51.85;98579.38;6371803;27;20368;-65
2022/03/19 02:32:29;;;;;;;18.13;9.13;;;;;;;-11.80;51.67;98575.41;6353443;27;20129;-65
2022/03/19 02:35:32;;;;;;;;;;;;;;;-11.72;51.39;98577.44;6372089;27;20047;-63
2022/03/19 02:38:36;;;;;;;17.65;9.05;;;;;;;-11.67;51.51;98587.00;6353479;27;19919;-64
2022/03/19 02:41:48;;;;;;;23.50;11.32;;;;;;;-11.50;51.87;98590.38;6371659;27;20046;-63
2022/03/19 02:44:53;;;;;;;32.45;12.90;;;;;;;-11.40;51.17;98597.66;6371675;27;20042;-64
2022/03/19 02:47:59;;;;;;;;;;;;;;;-11.36;51.59;98599.56;6353648;27;20043;-64
2022/03/19 02:51:06;;;;;;;38.90;12.15;;;;;;;-11.31;50.69;98612.50;6352633;28;19919;-64
2022/03/19 02:54:13;;;;;;;34.08;13.57;;;;;;;-11.23;51.12;98595.09;6371439;27;20515;-63
2022/03/19 02:57:18;;;;;;;30.13;11.90;;;;;;;-11.14;50.91;98600.59;6371074;28;20039;-63
2022/03/19 03:00:23;;;;;;;30.63;13.25;;;;;;;-11.10;50.58;98607.56;6371727;27;20039;-63
2022/03/19 03:03:26;;;;;;;;;;;;;;;-11.05;50.68;98606.09;6377142;27;20039;-62
2022/03/19 03:06:36;;;;;;;35.33;12.40;;;;;;;-11.04;50.42;98592.59;6376281;27;19915;-65
2022/03/19 03:09:44;;;;;;;41.55;12.95;;;;;;;-11.03;49.90;98603.66;6358398;27;20035;-64
2022/03/19 03:12:48;;;;;;;36.63;13.73;;;;;;;-11.01;50.00;98620.72;6340031;27;20047;-63
2022/03/19 03:15:53;;;;;;;36.22;14.27;;;;;;;-10.93;49.96;98615.97;6357518;27;20058;-63
2022/03/19 03:19:02;;;;;;;47.05;17.63;;;;;;;-10.80;50.94;98612.34;6376271;27;20050;-64
2022/03/19 03:22:09;;;;;;;40.00;16.38;;;;;;;-10.53;50.59;98608.53;6357853;27;20129;-64
2022/03/19 03:25:13;;;;;;;41.30;16.88;;;;;;;-10.20;49.52;98613.34;6357635;27;20047;-64
2022/03/19 03:28:16;;;;;;;;;;;;;;;-9.88;50.52;98601.16;6376491;27;20042;-63
2022/03/19 03:31:21;;;;;;;56.70;21.30;;;;;;;-9.61;48.69;98599.78;6376029;27;19915;-64
2022/03/19 03:34:26;;;;;;;51.13;21.15;;;;;;;-9.34;48.26;98607.72;6376033;27;20043;-65
2022/03/19 03:37:29;;;;;;;;;;;;;;;-9.08;47.58;98603.66;6376114;27;20046;-64
2022/03/19 03:40:34;;;;;;;57.30;22.70;;;;;;;-8.94;47.64;98613.56;6375598;27;19919;-64
2022/03/19 03:43:39;;;;;;;43.42;18.17;;;;;;;-8.83;47.73;98604.59;6357464;27;20051;-65
2022/03/19 03:46:41;;;;;;;;;;;;;;;-8.69;47.38;98618.78;6375971;27;20035;-64
2022/03/19 03:49:46;;;;;;;30.58;13.98;;;;;;;-8.79;47.42;98609.03;6375518;27;19919;-64
2022/03/19 03:52:51;;;;;;;24.15;12.95;;;;;;;-8.89;47.92;98606.91;6355800;27;20039;-65
2022/03/19 03:55:57;;;;;;;24.70;12.52;;;;;;;-8.83;48.22;98632.66;6373782;27;20042;-64
2022/03/19 03:59:01;;;;;;;30.85;12.88;;;;;;;-8.59;48.10;98618.31;6356708;27;20039;-64
2022/03/19 04:02:04;;;;;;;;;;;;;;;-8.15;47.75;98636.09;6375068;27;20035;-64
2022/03/19 04:05:12;;;;;;;27.98;13.63;;;;;;;-7.68;46.79;98619.91;6356039;27;19919;-64
2022/03/19 04:08:18;;;;;;;29.48;13.05;;;;;;;-7.17;45.64;98625.88;6375155;27;20035;-64
2022/03/19 04:11:21;;;;;;;26.42;11.68;;;;;;;-6.64;45.74;98630.16;6355761;27;20408;-63
2022/03/19 04:14:26;;;;;;;29.75;12.88;;;;;;;-6.14;45.26;98629.94;6374749;27;20050;-64
2022/03/19 04:17:29;;;;;;;22.83;11.05;;;;;;;-5.74;44.54;98643.88;6374545;27;20039;-63
2022/03/19 04:20:35;;;;;;;25.25;11.48;;;;;;;-5.60;45.04;98633.97;6339440;27;20428;-64
2022/03/19 04:23:40;;;;;;;22.83;11.25;;;;;;;-5.48;45.25;98624.91;6339344;27;20424;-66
2022/03/19 04:26:45;;;;;;;37.80;17.45;;;;;;;-5.37;45.50;98632.91;6374502;27;20039;-64
2022/03/19 04:29:50;;;;;;;29.55;15.52;;;;;;;-5.28;45.86;98642.53;6374377;27;20043;-64
2022/03/19 04:32:59;;;;;;;34.63;17.88;;;;;;;-4.87;45.38;98647.81;6374304;27;20055;-63
2022/03/19 04:39:27;;;;;;;21.25;13.27;;;;;;;-4.03;44.19;98633.47;6374788;27;20042;-64
2022/03/19 04:42:32;;;;;;;27.63;16.60;;;;;;;-3.97;44.43;98636.16;6339099;27;20043;-64
2022/03/19 04:45:38;;;;;;;23.08;13.70;;;;;;;-3.79;44.15;98639.13;6374574;27;20043;-64
2022/03/19 04:48:45;;;;;;;22.27;12.95;;;;;;;-3.70;44.18;98636.75;6373991;27;20039;-64
2022/03/19 04:51:52;;;;;;;18.65;11.23;;;;;;;-3.62;43.54;98647.19;6355799;27;20093;-63
2022/03/19 04:55:00;;;;;;;18.90;11.20;;;;;;;-3.34;43.71;98640.88;6373960;27;20031;-64
2022/03/19 04:58:06;;;;;;;16.10;9.90;;;;;;;-2.89;42.51;98639.91;6373621;27;20420;-65
2022/03/19 05:01:11;;;;;;;19.90;10.20;;;;;;;-2.59;42.16;98641.28;6373816;27;20046;-64
2022/03/19 05:04:16;;;;;;;23.38;12.75;;;;;;;-2.39;41.87;98650.16;6374079;27;20488;-65
2022/03/19 05:07:22;;;;;;;27.83;15.48;;;;;;;-2.26;41.46;98641.78;6373889;27;20043;-64
2022/03/19 05:13:53;;;;;;;26.35;15.10;;;;;;;-1.82;40.56;98638.06;6373207;27;20084;-64
2022/03/19 05:16:57;;;;;;;30.15;16.85;;;;;;;-1.23;39.89;98634.44;6373451;27;20047;-64
2022/03/19 05:20:02;;;;;;;31.08;18.05;;;;;;;-1.14;39.24;98645.69;6373224;27;20397;-64
2022/03/19 05:23:07;;;;;;;29.75;15.93;;;;;;;-0.95;39.39;98632.97;6353626;27;20051;-63
2022/03/19 05:26:12;;;;;;;26.75;15.68;;;;;;;-0.57;38.40;98645.34;6373027;27;20551;-64
2022/03/19 05:29:15;;;;;;;34.28;16.20;;;;;;;0.02;38.00;98662.13;6373086;27;20051;-64
2022/03/19 05:32:20;;;;;;;21.42;13.55;;;;;;;0.81;36.27;98659.00;6373163;27;20043;-65
2022/03/19 05:35:26;;;;;;;24.52;14.07;;;;;;;1.56;35.63;98651.34;6372858;27;20066;-64
2022/03/19 05:38:31;;;;;;;25.50;13.95;;;;;;;2.05;34.27;98646.06;6372768;27;20050;-65
2022/03/19 05:41:36;;;;;;;22.35;12.95;;;;;;;2.20;34.36;98640.81;6372502;27;20035;-64
2022/03/19 05:44:41;;;;;;;16.67;10.15;;;;;;;2.31;33.86;98616.53;6353571;27;20047;-64
2022/03/19 05:47:47;;;;;;;23.95;12.98;;;;;;;2.21;32.70;98631.31;6354297;27;20063;-64
2022/03/19 05:50:53;;;;;;;14.25;8.23;;;;;;;2.84;32.98;98638.81;6353855;27;20051;-65
2022/03/19 05:53:58;;;;;;;17.83;10.65;;;;;;;3.19;31.92;98624.72;6372402;27;20036;-64
2022/03/19 05:57:03;;;;;;;15.55;9.52;;;;;;;3.88;31.07;98630.19;6353481;27;20055;-65
2022/03/19 06:00:08;;;;;;;15.68;8.80;;;;;;;4.28;30.01;98648.00;6372110;27;20397;-64
2022/03/19 06:03:12;;;;;;;13.57;9.10;;;;;;;4.41;29.98;98615.69;6372071;27;20129;-64
2022/03/19 06:06:17;;;;;;;16.60;8.52;;;;;;;5.55;28.63;98590.56;6372347;27;20038;-64
2022/03/19 06:09:22;;;;;;;17.50;9.50;;;;;;;5.82;28.03;98621.41;6371924;27;20047;-63
2022/03/19 06:12:28;;;;;;;13.73;8.02;;;;;;;7.12;26.34;98604.81;6371407;27;20451;-64
2022/03/19 06:15:32;;;;;;;12.43;7.55;;;;;;;8.12;25.24;98619.78;6353592;27;20039;-64
2022/03/19 06:18:37;;;;;;;14.02;8.35;;;;;;;8.76;24.10;98649.50;6371800;27;20519;-64
2022/03/19 06:21:42;;;;;;;10.38;7.20;;;;;;;9.31;24.04;98637.31;6371681;27;20496;-63
2022/03/19 06:24:47;;;;;;;6.55;5.43;;;;;;;9.26;23.44;98602.47;6371706;27;20039;-64
2022/03/19 06:27:50;;;;;;;11.52;7.10;;;;;;;7.87;25.31;98604.72;6371565;27;20126;-63
2022/03/19 06:30:55;;;;;;;12.50;7.22;;;;;;;7.68;25.68;98619.22;6371709;27;20039;-64
2022/03/19 06:34:00;;;;;;;11.88;6.97;;;;;;;9.74;23.29;98651.72;6371637;27;20046;-64
2022/03/19 06:37:22;;;;;;;9.57;6.65;;;;;;;11.63;21.17;98648.28;6352881;27;20051;-64
2022/03/19 06:40:30;;;;;;;11.77;5.85;;;;;;;11.48;21.09;98619.88;6371643;27;20035;-64
2022/03/19 06:43:36;;;;;;;8.38;6.70;;;;;;;10.98;21.45;98617.47;6371440;27;20408;-64
2022/03/19 06:46:42;;;;;;;8.38;6.18;;;;;;;10.51;21.60;98602.56;6371108;27;20422;-64
2022/03/19 06:49:47;;;;;;;10.15;6.03;;;;;;;10.85;21.50;98606.56;6371242;27;20066;-64
2022/03/19 06:52:51;;;;;;;8.65;6.25;;;;;;;11.17;21.08;98633.44;6370988;27;20030;-65
2022/03/19 06:55:55;;;;;;;;;;;;;;;10.95;21.01;98633.38;6352527;27;20055;-64
2022/03/19 06:59:00;;;;;;;7.55;5.70;;;;;;;10.07;21.65;98596.25;6371182;28;19972;-64
2022/03/19 07:02:04;;;;;;;9.75;7.47;;;;;;;8.81;22.65;98579.34;6371288;28;20404;-62
2022/03/19 07:05:08;;;;;;;;;;;;;;;8.64;22.70;98613.13;6352766;28;20051;-64
2022/03/19 07:08:13;;;;;;;11.95;7.75;;;;;;;7.80;23.60;98613.63;6371239;28;19919;-65
2022/03/19 07:11:18;;;;;;;11.45;8.30;;;;;;;7.87;23.55;98591.63;6371372;28;20034;-64
2022/03/19 07:14:23;;;;;;;11.18;8.27;;;;;;;7.43;24.21;98586.59;6371022;28;20055;-64
2022/03/19 07:17:29;;;;;;;12.32;8.25;;;;;;;7.59;24.16;98594.09;6370892;28;20035;-64
2022/03/19 07:20:33;;;;;;;14.07;9.32;;;;;;;7.53;24.53;98584.63;6352292;28;20524;-64
2022/03/19 07:23:38;;;;;;;14.05;8.27;;;;;;;7.72;23.84;98584.16;6370821;28;20091;-63
2022/03/19 07:26:43;;;;;;;11.90;7.68;;;;;;;7.52;24.10;98572.41;6370915;28;20065;-65
2022/03/19 07:29:48;;;;;;;14.68;8.52;;;;;;;6.25;25.71;98584.03;6370594;28;20046;-64
2022/03/19 07:32:53;;;;;;;11.63;8.23;;;;;;;5.93;26.07;98586.38;6370326;28;20043;-64
2022/03/19 07:35:59;;;;;;;14.95;8.80;;;;;;;6.16;25.70;98573.75;6370334;28;20035;-65
2022/03/19 07:39:03;;;;;;;8.77;6.78;;;;;;;6.45;25.54;98569.69;6370389;28;20039;-65
2022/03/19 07:42:04;;;;;;;13.27;8.77;;;;;;;6.24;25.61;98582.31;6352230;28;20039;-65
2022/03/19 07:45:09;;;;;;;11.32;8.15;;;;;;;5.75;26.30;98578.00;6352158;28;20523;-64
2022/03/19 07:48:15;;;;;;;13.27;9.00;;;;;;;5.30;27.27;98575.31;6373902;27;20043;-63
2022/03/19 07:51:20;;;;;;;14.50;9.82;;;;;;;4.62;28.06;98572.84;6375268;27;20047;-64
2022/03/19 07:54:27;;;;;;;14.35;8.93;;;;;;;4.30;28.57;98557.63;6374904;27;20039;-64
2022/03/19 07:57:31;;;;;;;12.38;9.15;;;;;;;4.16;29.13;98569.97;6356041;27;20055;-64
2022/03/19 08:00:34;;;;;;;15.30;8.50;;;;;;;4.62;28.75;98574.59;6356721;27;20050;-64
2022/03/19 08:03:39;;;;;;;17.05;10.60;;;;;;;4.78;28.52;98576.09;6375081;27;20031;-62
2022/03/19 08:06:44;;;;;;;13.25;7.95;;;;;;;4.99;28.01;98564.50;6375286;27;20496;-64
2022/03/19 08:09:48;;;;;;;19.25;10.35;;;;;;;4.63;28.87;98574.56;6374720;27;20047;-63
2022/03/19 08:13:03;;;;;;;13.38;9.38;;;;;;;5.21;28.72;98570.25;6374746;27;20058;-64
2022/03/19 08:16:05;;;;;;;16.20;9.25;;;;;;;5.63;28.04;98552.97;6374081;27;20062;-64
2022/03/19 08:19:07;;;;;;;17.00;9.80;;;;;;;5.56;28.31;98545.28;6373462;27;20430;-64
2022/03/19 08:22:08;;;;;;;14.13;10.10;;;;;;;5.88;27.86;98530.75;6373121;27;20113;-64
2022/03/19 08:25:13;;;;;;;10.02;7.35;;;;;;;6.58;27.18;98545.00;6373645;27;20537;-64
2022/03/19 08:28:14;;;;;;;12.50;8.95;;;;;;;6.92;27.05;98542.47;6373710;27;20055;-65
2022/03/19 08:31:18;;;;;;;10.45;8.07;;;;;;;7.37;26.44;98546.63;6374281;27;20044;-65
2022/03/19 08:34:26;;;;;;;11.90;7.65;;;;;;;8.01;26.08;98547.56;6374418;27;20039;-65
2022/03/19 08:37:32;;;;;;;9.27;7.20;;;;;;;8.86;24.75;98540.72;6373708;27;20055;-64
2022/03/19 08:40:36;;;;;;;7.97;6.20;;;;;;;9.76;24.05;98543.88;6374109;27;20035;-64
2022/03/19 08:43:38;;;;;;;7.95;5.75;;;;;;;9.63;24.00;98546.06;6373369;27;20043;-65
2022/03/19 08:46:41;;;;;;;;;;;;;;;9.58;23.80;98534.84;6374342;27;20035;-64
2022/03/19 08:49:43;;;;;;;9.35;5.45;;;;;;;8.60;24.73;98527.50;6373648;27;20281;-66
2022/03/19 08:52:44;;;;;;;9.68;6.63;;;;;;;8.45;25.26;98524.44;6373301;27;20065;-64
2022/03/19 08:55:46;;;;;;;8.60;5.90;;;;;;;8.69;25.10;98527.22;6373225;27;20043;-65
2022/03/19 08:58:49;;;;;;;7.78;6.05;;;;;;;7.86;25.72;98522.59;6371207;27;20393;-65
2022/03/19 09:01:54;;;;;;;9.60;7.53;;;;;;;7.99;25.82;98536.25;6372215;27;20047;-64
2022/03/19 09:05:00;;;;;;;11.98;7.35;;;;;;;8.16;25.35;98537.53;6373534;27;20125;-64
2022/03/19 09:08:04;;;;;;;12.00;7.43;;;;;;;7.93;25.84;98543.44;6372801;27;20084;-64
2022/03/19 09:11:12;;;;;;;10.23;6.30;;;;;;;7.69;26.47;98537.94;6373541;27;20050;-64
2022/03/19 09:14:18;;;;;;;11.02;6.90;;;;;;;7.14;26.60;98528.88;6373232;27;20047;-64
2022/03/19 09:17:24;;;;;;;9.40;7.22;;;;;;;6.90;27.17;98535.53;6372902;27;20046;-65
2022/03/19 09:20:26;;;;;;;9.57;6.63;;;;;;;6.35;28.04;98519.34;6372135;27;20100;-64
2022/03/19 09:23:30;;;;;;;12.63;6.50;;;;;;;6.85;27.39;98512.13;6373174;27;20513;-63
2022/03/19 09:26:31;;;;;;;;;;;;;;;7.95;26.48;98508.38;6371720;27;20150;-65
2022/03/19 09:29:33;;;;;;;12.50;7.53;;;;;;;8.38;25.66;98512.41;6354046;27;19941;-64
2022/03/19 09:32:38;;;;;;;13.23;5.63;;;;;;;8.96;24.58;98500.13;6372469;27;20043;-63
2022/03/19 09:35:40;;;;;;;6.70;4.57;;;;;;;8.60;25.29;98507.38;6372225;27;20047;-63
2022/03/19 09:38:44;;;;;;;9.70;5.82;;;;;;;7.79;26.11;98507.13;6373005;27;20054;-65
2022/03/19 09:41:48;;;;;;;7.60;5.57;;;;;;;6.95;26.98;98497.91;6372624;27;20039;-63
2022/03/19 09:44:49;;;;;;;11.73;6.78;;;;;;;6.08;27.94;98494.66;6371164;27;20055;-64
2022/03/19 09:47:56;;;;;;;10.82;6.85;;;;;;;5.68;29.17;98495.41;6372152;27;20083;-65
2022/03/19 09:51:01;;;;;;;8.80;6.35;;;;;;;5.49;29.34;98496.66;6371377;27;20096;-64
2022/03/19 09:54:02;;;;;;;9.57;5.72;;;;;;;5.24;29.82;98491.88;6371067;27;20065;-65
2022/03/19 09:57:06;;;;;;;10.82;7.05;;;;;;;4.14;31.50;98490.97;6372312;27;20043;-63
2022/03/19 10:00:10;;;;;;;9.88;6.60;;;;;;;3.70;32.08;98492.38;6371246;27;20086;-63
2022/03/19 10:03:17;;;;;;;14.95;8.57;;;;;;;3.53;32.68;98490.81;6371715;27;20047;-64
2022/03/19 10:09:46;;;;;;;16.65;9.32;;;;;;;3.59;33.09;98475.16;6371739;27;20035;-64
2022/03/19 10:12:47;;;;;;;9.25;6.60;;;;;;;3.36;33.20;98466.72;6371863;27;20055;-66
2022/03/19 10:15:49;;;;;;;12.85;8.02;;;;;;;2.85;34.24;98468.94;6370861;27;20390;-63
2022/03/19 10:19:04;;;;;;;10.40;6.60;;;;;;;2.61;34.53;98459.63;6371086;27;20050;-63
2022/03/19 10:22:09;;;;;;;11.57;7.30;;;;;;;2.06;35.72;98466.03;6370972;27;20076;-64
2022/03/19 10:25:18;;;;;;;11.88;8.15;;;;;;;1.68;36.47;98464.47;6371675;27;20114;-65
2022/03/19 10:28:28;;;;;;;12.00;7.97;;;;;;;1.81;36.65;98454.88;6370537;27;20054;-64
2022/03/19 10:31:36;;;;;;;11.93;8.32;;;;;;;1.82;36.73;98445.41;6371520;27;20035;-64
2022/03/19 10:34:40;;;;;;;11.60;7.18;;;;;;;1.74;36.79;98438.50;6370587;27;20055;-66
2022/03/19 10:37:41;;;;;;;14.52;8.73;;;;;;;1.67;36.97;98447.19;6370526;27;20432;-65
2022/03/19 10:40:51;;;;;;;13.55;8.25;;;;;;;1.53;37.56;98444.66;6371618;27;20046;-63
2022/03/19 10:43:55;;;;;;;16.02;9.80;;;;;;;1.92;37.18;98436.69;6370488;27;20046;-64
2022/03/19 10:47:04;;;;;;;18.90;10.55;;;;;;;2.50;35.78;98451.03;6371484;27;20424;-65
2022/03/19 10:50:05;;;;;;;12.40;9.38;;;;;;;2.73;35.78;98443.91;6370209;27;20050;-64
2022/03/19 10:53:09;;;;;;;11.98;7.97;;;;;;;2.68;35.74;98437.88;6371446;27;20066;-64
2022/03/19 10:56:11;;;;;;;11.70;7.97;;;;;;;2.79;35.82;98440.41;6370365;27;20415;-64
2022/03/19 10:59:15;;;;;;;12.75;7.55;;;;;;;2.53;36.00;98441.47;6370931;27;20424;-64
2022/03/19 11:02:20;;;;;;;8.63;6.93;;;;;;;2.35;36.19;98439.00;6370970;28;20043;-65
2022/03/19 11:05:27;;;;;;;9.48;7.35;;;;;;;2.41;36.15;98431.19;6370400;28;20515;-64
2022/03/19 11:08:37;;;;;;;13.48;8.05;;;;;;;2.56;35.88;98430.19;6370504;28;20526;-65
2022/03/19 11:11:51;;;;;;;10.80;7.00;;;;;;;2.60;35.92;98432.75;6370277;28;20051;-64
2022/03/19 11:15:02;;;;;;;13.07;7.65;;;;;;;2.49;36.09;98437.16;6371291;28;20480;-64
2022/03/19 11:18:09;;;;;;;8.52;6.53;;;;;;;2.26;36.30;98432.13;6370782;28;20047;-63
2022/03/19 11:21:17;;;;;;;11.95;6.47;;;;;;;2.10;36.48;98431.41;6371289;27;20492;-64
2022/03/19 11:24:25;;;;;;;9.57;5.35;;;;;;;1.15;38.34;98429.19;6375708;27;20058;-63
2022/03/19 11:27:32;;;;;;;12.57;8.02;;;;;;;0.81;38.74;98437.03;6375049;27;20039;-65
2022/03/19 11:30:36;;;;;;;13.60;7.88;;;;;;;0.70;39.97;98423.22;6376020;27;20045;-63
2022/03/19 11:33:40;;;;;;;12.77;7.45;;;;;;;0.43;40.09;98427.56;6375746;27;20035;-65
2022/03/19 11:37:02;;;;;;;9.88;6.95;;;;;;;0.20;40.72;98421.50;6374752;27;20054;-64
2022/03/19 11:40:29;;;;;;;14.27;7.55;;;;;;;-0.22;41.58;98423.13;6375650;27;20047;-64
2022/03/19 11:43:36;;;;;;;15.00;8.57;;;;;;;-0.59;42.58;98423.00;6375658;27;20500;-65
2022/03/19 11:47:02;;;;;;;13.98;7.75;;;;;;;-0.52;42.39;98404.06;6374769;27;20393;-63
2022/03/19 11:50:18;;;;;;;14.13;8.85;;;;;;;-0.69;43.27;98400.53;6374444;27;20258;-63
2022/03/19 11:53:24;;;;;;;9.75;6.65;;;;;;;-0.60;43.13;98415.22;6375456;27;20141;-64
2022/03/19 11:56:48;;;;;;;13.73;7.32;;;;;;;-0.48;42.53;98410.97;6374911;27;20046;-64
2022/03/19 11:59:55;;;;;;;14.00;7.45;;;;;;;-0.42;43.00;98398.94;6375274;27;20043;-64
2022/03/19 12:03:25;;;;;;;11.75;6.38;;;;;;;-0.51;43.11;98405.81;6374317;27;20054;-64
2022/03/19 12:06:36;;;;;;;10.93;6.18;;;;;;;-0.62;43.48;98401.41;6374979;27;20421;-65
2022/03/19 12:09:40;;;;;;;8.32;6.85;;;;;;;-0.85;44.23;98406.50;6375117;27;20043;-65
2022/03/19 12:12:43;;;;;;;9.43;5.93;;;;;;;-1.40;45.15;98394.97;6374930;27;20055;-65
2022/03/19 12:15:50;;;;;;;18.08;9.35;;;;;;;-1.71;45.79;98404.19;6375183;27;20507;-64
2022/03/19 12:18:56;;;;;;;13.18;7.40;;;;;;;-1.75;46.25;98391.28;6356116;27;20047;-64
2022/03/19 12:22:00;;;;;;;13.90;7.93;;;;;;;-1.95;46.95;98389.38;6374634;27;20126;-63
2022/03/19 12:25:25;;;;;;;10.90;6.57;;;;;;;-2.10;47.23;98389.22;6373815;27;20070;-64
2022/03/19 12:28:29;;;;;;;10.25;6.10;;;;;;;-2.42;48.13;98392.34;6374014;27;20047;-64
2022/03/19 12:31:44;;;;;;;11.63;7.68;;;;;;;-2.52;48.40;98385.34;6373326;27;20084;-64
2022/03/19 12:35:06;;;;;;;13.43;7.65;;;;;;;-2.50;48.23;98383.66;6374012;27;20047;-64
2022/03/19 12:38:08;;;;;;;10.43;6.65;;;;;;;-2.71;48.83;98374.84;6373195;27;20055;-63
2022/03/19 12:41:27;;;;;;;12.50;7.40;;;;;;;-2.75;48.93;98362.75;6373426;27;20062;-64
2022/03/19 12:44:29;;;;;;;11.10;7.28;;;;;;;-2.86;49.90;98359.22;6373313;27;20114;-64
2022/03/19 12:47:39;;;;;;;13.35;8.48;;;;;;;-3.04;50.57;98352.13;6373952;27;20424;-64
2022/03/19 12:50:48;;;;;;;10.70;6.65;;;;;;;-3.31;50.76;98349.16;6354801;27;20397;-64
2022/03/19 12:53:50;;;;;;;12.02;7.03;;;;;;;-3.34;51.14;98344.88;6372700;27;20050;-64
2022/03/19 12:56:53;;;;;;;10.77;6.97;;;;;;;-3.52;52.16;98330.00;6372826;27;20072;-64
2022/03/19 12:59:57;;;;;;;13.75;7.93;;;;;;;-3.61;52.39;98335.91;6355231;27;20438;-63
2022/03/19 13:03:01;;;;;;;10.52;6.85;;;;;;;-3.76;52.60;98335.69;6373401;27;20039;-64
2022/03/19 13:06:02;;;;;;;10.32;6.60;;;;;;;-3.85;53.40;98332.94;6372761;27;20039;-64
2022/03/19 13:09:10;;;;;;;12.48;7.15;;;;;;;-3.94;53.68;98340.53;6373222;27;20039;-65
2022/03/19 13:12:18;;;;;;;8.10;5.38;;;;;;;-4.12;54.69;98326.53;6371942;27;20058;-66
2022/03/19 13:15:22;;;;;;;11.48;7.18;;;;;;;-4.49;55.14;98319.91;6373305;27;20047;-63
2022/03/19 13:18:32;;;;;;;13.70;7.53;;;;;;;-4.71;55.44;98316.06;6372012;27;20054;-64
2022/03/19 13:21:42;;;;;;;10.43;6.78;;;;;;;-4.93;56.15;98316.50;6372471;27;20508;-65
2022/03/19 13:24:53;;;;;;;7.88;4.13;;;;;;;-4.81;56.61;98311.59;6373303;27;20484;-64
2022/03/19 13:28:00;;;;;;;8.93;5.25;;;;;;;-5.03;57.47;98300.94;6373277;27;20043;-64
2022/03/19 13:31:08;;;;;;;8.45;5.90;;;;;;;-5.27;57.47;98311.56;6371716;27;20063;-64
2022/03/19 13:34:30;;;;;;;10.27;6.20;;;;;;;-5.31;58.50;98307.22;6371910;27;20134;-64
2022/03/19 13:37:37;;;;;;;11.48;6.35;;;;;;;-5.43;58.69;98300.13;6371640;27;20058;-64
2022/03/19 13:40:43;;;;;;;10.90;6.15;;;;;;;-5.70;58.36;98300.38;6372697;27;20416;-65
2022/03/19 13:43:47;;;;;;;10.65;7.15;;;;;;;-5.81;59.22;98295.84;6371431;27;20054;-63
2022/03/19 13:47:07;;;;;;;12.07;8.23;;;;;;;-5.81;59.17;98285.59;6372319;27;20049;-64
2022/03/19 13:50:10;;;;;;;12.75;6.85;;;;;;;-5.99;59.36;98276.72;6371639;27;20049;-64
2022/03/19 13:53:14;;;;;;;11.18;6.80;;;;;;;-6.07;59.52;98273.09;6372156;27;20039;-65
2022/03/19 13:56:18;;;;;;;11.63;5.57;;;;;;;-6.06;60.15;98273.97;6372197;27;20035;-64
2022/03/19 13:59:33;;;;;;;9.25;6.13;;;;;;;-6.19;59.95;98257.44;6372328;27;20115;-64
2022/03/19 14:02:39;;;;;;;10.15;6.40;;;;;;;-6.26;60.49;98258.13;6372283;27;20043;-64
2022/03/19 14:05:44;;;;;;;8.93;6.13;;;;;;;-6.30;59.91;98261.47;6371313;27;20142;-64
2022/03/19 14:08:48;;;;;;;15.82;7.22;;;;;;;-6.46;61.11;98266.19;6371824;27;20488;-64
2022/03/19 14:11:51;;;;;;;15.32;7.53;;;;;;;-6.77;61.53;98260.31;6371232;27;20057;-65
2022/03/19 14:14:53;;;;;;;12.52;7.45;;;;;;;-6.58;61.27;98256.53;6371812;27;20455;-65
2022/03/19 14:17:58;;;;;;;15.15;7.10;;;;;;;-6.82;61.91;98254.22;6353485;27;20043;-64
2022/03/19 14:21:05;;;;;;;13.05;7.90;;;;;;;-6.89;62.16;98251.47;6370756;27;20043;-65
2022/03/19 14:24:06;;;;;;;15.70;6.57;;;;;;;-6.76;61.61;98253.50;6370774;27;20424;-65
2022/03/19 14:27:09;;;;;;;11.20;7.75;;;;;;;-6.98;62.57;98252.09;6371189;27;20535;-65
2022/03/19 14:30:12;;;;;;;9.32;5.88;;;;;;;-7.15;63.09;98243.09;6370605;27;20077;-65
2022/03/19 14:33:15;;;;;;;10.05;6.63;;;;;;;-7.13;63.20;98236.31;6371444;27;20545;-65
2022/03/19 14:36:22;;;;;;;11.70;7.25;;;;;;;-7.16;62.86;98242.25;6371636;27;20039;-63
2022/03/19 14:39:26;;;;;;;11.32;6.65;;;;;;;-7.11;62.90;98240.66;6371530;27;20412;-65
2022/03/19 14:42:30;;;;;;;9.77;6.55;;;;;;;-7.37;63.58;98231.44;6371289;27;20092;-65
2022/03/19 14:45:32;;;;;;;5.40;4.07;;;;;;;-7.36;63.50;98238.25;6370604;27;20054;-66